Time;durP1;ratioP1;P1;durP2;ratioP2;P2;SDS_P1;SDS_P2;PMS_P1;PMS_P2;Temp;Humidity;BMP_temperature;BMP_pressure;BME280_temperature;BME280_humidity;BME280_pressure;Samples;Min_cycle;Max_cycle;Signal;HPM_P1;HPM_P2
2021/07/31 00:02:19;;;;;;;9.82;4.18;;;22.80;72.20;;;;;;5027924;28;20052;-86
2021/07/31 00:04:45;;;;;;;7.50;4.05;;;22.80;72.40;;;;;;5010108;28;20025;-86
2021/07/31 00:07:11;;;;;;;5.95;3.35;;;22.80;73.30;;;;;;5009425;28;20136;-88
2021/07/31 00:09:36;;;;;;;17.83;4.70;;;22.70;72.80;;;;;;5027507;28;20124;-87
2021/07/31 00:12:02;;;;;;;9.02;4.15;;;22.70;72.90;;;;;;5027867;28;20033;-87
2021/07/31 00:14:31;;;;;;;9.07;3.80;;;22.70;73.00;;;;;;5027339;28;20557;-87
2021/07/31 00:16:57;;;;;;;11.00;3.80;;;22.70;73.00;;;;;;5026631;28;20018;-86
2021/07/31 00:19:23;;;;;;;8.75;3.85;;;22.70;73.20;;;;;;5009201;28;20033;-87
2021/07/31 00:21:49;;;;;;;6.68;3.30;;;22.70;73.20;;;;;;5008565;28;20030;-87
2021/07/31 00:24:14;;;;;;;6.57;4.25;;;22.70;72.90;;;;;;5026628;28;20079;-87
2021/07/31 00:26:40;;;;;;;5.97;3.67;;;22.70;72.90;;;;;;5009379;28;20031;-85
2021/07/31 00:29:06;;;;;;;10.38;3.67;;;22.70;73.30;;;;;;5026363;28;20068;-85
2021/07/31 00:31:31;;;;;;;7.13;3.40;;;22.70;72.70;;;;;;5027020;28;20048;-86
2021/07/31 00:33:57;;;;;;;6.75;3.20;;;22.70;72.60;;;;;;5027115;28;20341;-86
2021/07/31 00:36:24;;;;;;;8.02;3.45;;;22.70;72.80;;;;;;5009116;28;20037;-89
2021/07/31 00:38:50;;;;;;;7.30;3.92;;;22.70;73.10;;;;;;5010722;28;20052;-88
2021/07/31 00:41:16;;;;;;;7.50;4.10;;;22.70;73.10;;;;;;5011194;28;20108;-86
2021/07/31 00:43:41;;;;;;;5.72;3.85;;;22.70;73.30;;;;;;5028162;28;20037;-88
2021/07/31 00:46:08;;;;;;;8.70;4.03;;;22.70;73.40;;;;;;5010931;28;20028;-87
2021/07/31 00:48:34;;;;;;;11.00;3.75;;;22.60;73.40;;;;;;5028480;28;20040;-89
2021/07/31 00:51:00;;;;;;;6.00;3.28;;;22.60;73.00;;;;;;5010633;28;20120;-88
2021/07/31 00:53:25;;;;;;;8.68;3.35;;;22.60;72.90;;;;;;5010516;28;20112;-88
2021/07/31 00:55:54;;;;;;;7.43;3.30;;;22.60;72.70;;;;;;5011471;28;20117;-90
2021/07/31 00:58:21;;;;;;;5.72;4.00;;;22.60;72.50;;;;;;5027795;28;20036;-87
2021/07/31 01:00:46;;;;;;;7.30;3.30;;;22.60;72.60;;;;;;5026880;28;20021;-86
2021/07/31 01:03:12;;;;;;;13.73;4.28;;;22.60;72.10;;;;;;5009011;28;20399;-86
2021/07/31 01:05:38;;;;;;;11.50;3.42;;;22.60;72.20;;;;;;5026338;28;20033;-86
2021/07/31 01:08:04;;;;;;;9.55;3.55;;;22.60;72.50;;;;;;5026137;28;20045;-86
2021/07/31 01:10:31;;;;;;;10.50;4.15;;;22.50;72.70;;;;;;5008235;28;20025;-83
2021/07/31 01:13:00;;;;;;;6.53;4.07;;;22.50;72.70;;;;;;5008479;28;20033;-86
2021/07/31 01:15:26;;;;;;;6.95;3.55;;;22.50;72.60;;;;;;5008194;28;20022;-83
2021/07/31 01:17:51;;;;;;;8.00;2.90;;;22.50;72.30;;;;;;5008628;28;20040;-86
2021/07/31 01:20:17;;;;;;;5.97;3.45;;;22.50;71.70;;;;;;5008791;28;20120;-85
2021/07/31 01:22:43;;;;;;;6.47;4.07;;;22.50;71.30;;;;;;5008515;28;20045;-84
2021/07/31 01:25:08;;;;;;;14.85;3.83;;;22.50;70.90;;;;;;5026765;28;20026;-86
2021/07/31 01:27:34;;;;;;;5.65;3.50;;;22.50;70.80;;;;;;5009287;28;20033;-88
2021/07/31 01:30:00;;;;;;;10.27;3.67;;;22.60;70.60;;;;;;5008863;28;20028;-87
2021/07/31 01:32:26;;;;;;;4.80;3.40;;;22.60;70.70;;;;;;5009003;28;20125;-88
2021/07/31 01:34:51;;;;;;;8.40;3.33;;;22.60;70.90;;;;;;5008634;28;20030;-86
2021/07/31 01:37:17;;;;;;;8.00;3.63;;;22.60;71.10;;;;;;5008069;28;20445;-86
2021/07/31 01:39:43;;;;;;;10.60;4.30;;;22.60;71.30;;;;;;5008144;28;20044;-84
2021/07/31 01:42:09;;;;;;;7.70;4.10;;;22.60;71.50;;;;;;5005150;28;20042;-84
2021/07/31 01:44:34;;;;;;;8.93;3.45;;;22.60;71.70;;;;;;5007924;28;20039;-87
2021/07/31 01:47:02;;;;;;;6.38;3.50;;;22.60;71.90;;;;;;4988784;28;20564;-86
2021/07/31 01:49:28;;;;;;;11.55;3.75;;;22.60;71.90;;;;;;5005667;28;20041;-86
2021/07/31 01:51:53;;;;;;;7.68;3.45;;;22.60;71.70;;;;;;4996422;28;20140;-86
2021/07/31 01:54:19;;;;;;;11.95;3.30;;;22.60;71.50;;;;;;5006981;28;20711;-85
2021/07/31 01:56:47;;;;;;;6.13;3.55;;;22.60;71.30;;;;;;5006518;28;20177;-85
2021/07/31 01:59:14;;;;;;;4.70;3.13;;;22.60;70.90;;;;;;5007228;28;20069;-84
2021/07/31 02:01:39;;;;;;;9.48;3.58;;;22.60;70.60;;;;;;5006404;28;20488;-85
2021/07/31 02:04:05;;;;;;;6.47;3.30;;;22.60;70.30;;;;;;5010204;28;20558;-84
2021/07/31 02:06:30;;;;;;;4.40;3.00;;;22.70;70.30;;;;;;5007550;28;20043;-85
2021/07/31 02:08:56;;;;;;;5.57;3.58;;;22.70;70.10;;;;;;5002739;28;20035;-84
2021/07/31 02:11:22;;;;;;;6.78;3.28;;;22.80;70.20;;;;;;5032206;28;20029;-85
2021/07/31 02:13:48;;;;;;;7.90;4.13;;;22.70;70.20;;;;;;5026249;28;20045;-85
2021/07/31 02:16:24;;;;;;;11.00;4.43;;;22.80;70.60;;;;;;5007774;28;20048;-85
2021/07/31 02:18:51;;;;;;;6.10;3.15;;;22.80;70.60;;;;;;5008495;28;20069;-86
2021/07/31 02:21:18;;;;;;;9.93;3.38;;;22.70;70.50;;;;;;5011408;28;20433;-84
2021/07/31 02:23:44;;;;;;;12.38;3.60;;;22.70;70.60;;;;;;5009214;28;20037;-85
2021/07/31 02:26:09;;;;;;;8.15;3.30;;;22.70;70.90;;;;;;5002036;28;20045;-86
2021/07/31 02:28:35;;;;;;;9.15;3.05;;;22.70;70.20;;;;;;5011037;28;20039;-84
2021/07/31 02:31:01;;;;;;;6.68;3.58;;;22.80;68.90;;;;;;5006485;28;20099;-85
2021/07/31 02:33:26;;;;;;;5.20;2.92;;;22.80;68.40;;;;;;5009690;28;20072;-84
2021/07/31 02:35:52;;;;;;;8.75;3.42;;;22.80;68.20;;;;;;5008713;28;20512;-86
2021/07/31 02:38:18;;;;;;;5.45;2.60;;;22.90;68.80;;;;;;5010945;28;20056;-86
2021/07/31 02:40:43;;;;;;;4.88;3.17;;;22.80;69.50;;;;;;5010800;28;20498;-85
2021/07/31 02:43:09;;;;;;;8.73;3.10;;;22.80;69.00;;;;;;5010234;28;20060;-83
2021/07/31 02:45:36;;;;;;;5.03;2.90;;;22.80;69.20;;;;;;5010912;28;20123;-86
2021/07/31 02:48:04;;;;;;;8.32;3.65;;;22.80;69.50;;;;;;5010339;28;20489;-84
2021/07/31 02:50:30;;;;;;;8.88;3.40;;;22.70;69.80;;;;;;5010845;28;20029;-85
2021/07/31 02:52:55;;;;;;;3.75;2.55;;;22.70;70.30;;;;;;5010632;28;20056;-86
2021/07/31 02:55:21;;;;;;;7.13;2.72;;;22.70;70.40;;;;;;5009998;28;20075;-87
2021/07/31 02:57:47;;;;;;;16.08;3.33;;;22.70;70.20;;;;;;5010240;28;20048;-85
2021/07/31 03:00:13;;;;;;;10.77;3.60;;;22.60;70.50;;;;;;5010657;28;20511;-87
2021/07/31 03:02:38;;;;;;;12.65;3.78;;;22.60;70.50;;;;;;5010461;28;20036;-86
2021/07/31 03:05:05;;;;;;;11.02;3.15;;;22.50;70.20;;;;;;5009992;28;20029;-86
2021/07/31 03:07:32;;;;;;;6.40;3.08;;;22.50;70.30;;;;;;5010421;28;20025;-86
2021/07/31 03:09:59;;;;;;;5.07;2.40;;;22.60;69.50;;;;;;5010304;28;20026;-86
2021/07/31 03:12:25;;;;;;;9.45;2.90;;;22.60;69.70;;;;;;5010651;28;20581;-86
2021/07/31 03:14:52;;;;;;;9.63;3.10;;;22.60;69.60;;;;;;5028324;28;20018;-84
2021/07/31 03:17:20;;;;;;;6.40;2.88;;;22.70;69.90;;;;;;5009678;28;20038;-83
2021/07/31 03:19:46;;;;;;;3.50;2.60;;;22.70;69.90;;;;;;5009991;28;20124;-87
2021/07/31 03:22:12;;;;;;;10.05;2.63;;;22.70;70.00;;;;;;5010423;28;20037;-84
2021/07/31 03:24:38;;;;;;;7.78;2.75;;;22.70;70.10;;;;;;5010409;28;20198;-84
2021/07/31 03:27:07;;;;;;;7.30;2.67;;;22.70;69.80;;;;;;5009871;28;20329;-86
2021/07/31 03:29:33;;;;;;;7.75;3.17;;;22.70;69.50;;;;;;5010216;28;20112;-84
2021/07/31 03:31:59;;;;;;;9.85;3.63;;;22.70;69.30;;;;;;5009218;28;20048;-87
2021/07/31 03:34:25;;;;;;;7.13;3.17;;;22.80;69.40;;;;;;5009890;28;20029;-84
2021/07/31 03:36:55;;;;;;;6.20;2.22;;;22.80;69.70;;;;;;5009772;28;20052;-86
2021/07/31 03:39:24;;;;;;;9.15;2.50;;;22.80;69.30;;;;;;5009952;28;20033;-86
2021/07/31 03:41:51;;;;;;;7.68;3.05;;;22.90;69.40;;;;;;5010032;28;20039;-84
2021/07/31 03:44:17;;;;;;;5.07;2.50;;;22.90;69.50;;;;;;5009449;28;20026;-85
2021/07/31 03:46:44;;;;;;;6.30;3.17;;;22.90;69.60;;;;;;5009650;28;20025;-85
2021/07/31 03:49:09;;;;;;;5.70;2.75;;;22.90;69.20;;;;;;5009605;28;20095;-86
2021/07/31 03:51:35;;;;;;;10.82;2.78;;;22.90;69.00;;;;;;5009285;28;20042;-84
2021/07/31 03:54:01;;;;;;;7.53;3.05;;;22.90;69.40;;;;;;5009522;28;20441;-85
2021/07/31 03:56:26;;;;;;;8.15;3.03;;;22.90;70.20;;;;;;5009462;28;20649;-86
2021/07/31 03:58:53;;;;;;;8.50;3.40;;;23.00;70.40;;;;;;5027277;28;20466;-84
2021/07/31 04:01:23;;;;;;;3.03;2.30;;;23.00;70.20;;;;;;5009454;28;20025;-86
2021/07/31 04:03:50;;;;;;;6.38;2.65;;;23.00;70.00;;;;;;5009326;28;20025;-84
2021/07/31 04:06:15;;;;;;;6.60;2.50;;;23.10;70.60;;;;;;5026839;28;20379;-85
2021/07/31 04:08:41;;;;;;;4.93;3.03;;;23.10;69.60;;;;;;5009443;28;20037;-86
2021/07/31 04:11:07;;;;;;;7.60;3.20;;;23.20;69.70;;;;;;5009729;28;20035;-87
2021/07/31 04:13:33;;;;;;;8.00;3.05;;;23.30;69.90;;;;;;5026639;28;20029;-85
2021/07/31 04:15:58;;;;;;;11.68;3.08;;;23.30;70.50;;;;;;5026767;28;20017;-84
2021/07/31 04:18:24;;;;;;;5.20;3.13;;;23.40;70.80;;;;;;5026575;28;20498;-83
2021/07/31 04:20:50;;;;;;;9.30;3.08;;;23.40;70.70;;;;;;5026926;28;20131;-84
2021/07/31 04:23:16;;;;;;;12.35;3.47;;;23.50;70.40;;;;;;5008537;28;20079;-86
2021/07/31 04:25:42;;;;;;;7.53;4.07;;;23.60;70.10;;;;;;5008742;28;20037;-85
2021/07/31 04:28:08;;;;;;;5.75;4.15;;;23.70;69.70;;;;;;5009103;28;20406;-84
2021/07/31 04:30:34;;;;;;;9.55;4.22;;;23.70;69.20;;;;;;5009003;28;20792;-86
2021/07/31 04:33:00;;;;;;;10.63;3.90;;;23.90;69.10;;;;;;5008531;28;20408;-84
2021/07/31 04:35:26;;;;;;;16.23;4.43;;;24.00;68.80;;;;;;5008827;28;20026;-86
2021/07/31 04:37:51;;;;;;;9.13;4.30;;;24.10;68.50;;;;;;5026431;28;20088;-85
2021/07/31 04:40:17;;;;;;;6.55;3.33;;;24.10;68.30;;;;;;5008981;28;20034;-84
2021/07/31 04:42:43;;;;;;;9.80;3.88;;;24.10;68.00;;;;;;5026594;28;20025;-81
2021/07/31 04:45:09;;;;;;;6.05;3.67;;;24.10;68.10;;;;;;5026581;28;20473;-84
2021/07/31 04:47:40;;;;;;;8.48;3.75;;;24.30;68.30;;;;;;5008672;28;20029;-84
2021/07/31 04:50:12;;;;;;;6.47;3.45;;;24.40;68.20;;;;;;5008845;28;20036;-84
2021/07/31 04:52:38;;;;;;;8.00;4.22;;;24.50;68.00;;;;;;5026416;28;20040;-84
2021/07/31 04:55:05;;;;;;;7.47;3.67;;;24.60;67.70;;;;;;5008268;28;20096;-83
2021/07/31 04:57:31;;;;;;;7.07;3.95;;;24.70;67.90;;;;;;5008239;28;20061;-83
2021/07/31 04:59:56;;;;;;;7.97;4.35;;;24.70;68.10;;;;;;5026407;28;20053;-84
2021/07/31 05:02:22;;;;;;;10.38;4.25;;;24.80;68.50;;;;;;5007924;28;20128;-83
2021/07/31 05:04:47;;;;;;;7.00;4.00;;;24.90;68.50;;;;;;5008598;28;20033;-83
2021/07/31 05:07:14;;;;;;;8.55;4.00;;;25.00;68.40;;;;;;5008229;28;20176;-85
2021/07/31 05:09:39;;;;;;;9.43;3.92;;;25.10;68.40;;;;;;5008778;28;20112;-83
2021/07/31 05:12:05;;;;;;;6.18;3.95;;;25.10;68.70;;;;;;5026278;28;20120;-84
2021/07/31 05:14:31;;;;;;;14.10;4.63;;;25.00;68.80;;;;;;5007998;28;20033;-85
2021/07/31 05:16:57;;;;;;;9.43;4.10;;;25.00;69.30;;;;;;5008182;28;20117;-83
2021/07/31 05:19:23;;;;;;;8.07;4.30;;;24.90;69.60;;;;;;5026619;28;20614;-84
2021/07/31 05:21:48;;;;;;;8.90;4.20;;;24.80;69.80;;;;;;5012507;28;20029;-84
2021/07/31 05:24:14;;;;;;;10.65;4.30;;;24.70;69.90;;;;;;5012438;28;20033;-84
2021/07/31 05:26:40;;;;;;;8.30;4.25;;;24.70;70.40;;;;;;5029636;28;20033;-84
2021/07/31 05:29:07;;;;;;;14.02;4.85;;;24.60;70.60;;;;;;5011867;28;20057;-83
2021/07/31 05:31:33;;;;;;;11.52;4.38;;;24.50;71.50;;;;;;5029150;28;20559;-83
2021/07/31 05:34:00;;;;;;;9.07;4.20;;;24.50;71.10;;;;;;5029888;28;20336;-84
2021/07/31 05:36:26;;;;;;;14.57;4.95;;;24.40;71.50;;;;;;5011369;28;20033;-83
2021/07/31 05:38:51;;;;;;;7.53;4.55;;;24.40;71.70;;;;;;5011949;28;20550;-84
2021/07/31 05:41:19;;;;;;;5.75;4.05;;;24.30;71.30;;;;;;5011480;28;20025;-83
2021/07/31 05:43:45;;;;;;;6.85;4.15;;;24.40;71.30;;;;;;5011738;28;20069;-84
2021/07/31 05:46:14;;;;;;;9.52;4.25;;;24.40;71.80;;;;;;5011657;28;20107;-84
2021/07/31 05:48:40;;;;;;;11.00;4.70;;;24.50;71.60;;;;;;5011229;28;20052;-83
2021/07/31 05:51:13;;;;;;;7.60;4.72;;;24.60;71.40;;;;;;5011332;28;20033;-82
2021/07/31 05:53:39;;;;;;;5.88;3.95;;;24.80;71.40;;;;;;5011496;28;20504;-82
2021/07/31 05:56:08;;;;;;;7.35;4.47;;;25.00;71.20;;;;;;5028946;28;20038;-83
2021/07/31 05:58:35;;;;;;;16.35;5.47;;;25.30;70.30;;;;;;5011130;28;20044;-83
2021/07/31 06:01:03;;;;;;;6.38;4.22;;;25.50;69.50;;;;;;5011082;28;20026;-80
2021/07/31 06:03:29;;;;;;;14.95;4.43;;;25.70;69.20;;;;;;5011563;28;20387;-80
2021/07/31 06:05:57;;;;;;;6.20;4.80;;;25.90;68.90;;;;;;5029284;28;20547;-80
2021/07/31 06:08:23;;;;;;;9.73;4.35;;;26.00;68.50;;;;;;5029258;28;20037;-79
2021/07/31 06:10:48;;;;;;;8.93;4.32;;;26.10;67.40;;;;;;5011082;28;20033;-80
2021/07/31 06:13:14;;;;;;;10.93;5.95;;;26.00;67.70;;;;;;5011172;28;20445;-81
2021/07/31 06:15:43;;;;;;;5.30;4.18;;;25.90;68.10;;;;;;5010563;28;20505;-83
2021/07/31 06:18:10;;;;;;;9.35;4.32;;;25.90;68.70;;;;;;5029042;28;20036;-81
2021/07/31 06:20:36;;;;;;;14.68;4.53;;;25.90;69.40;;;;;;5011000;28;20103;-82
2021/07/31 06:23:02;;;;;;;8.25;4.57;;;25.80;70.00;;;;;;5029182;28;20065;-81
2021/07/31 06:25:27;;;;;;;12.55;4.55;;;25.80;69.30;;;;;;5028447;28;20029;-83
2021/07/31 06:27:54;;;;;;;13.05;4.72;;;25.70;69.20;;;;;;5011090;28;20048;-84
2021/07/31 06:30:19;;;;;;;8.10;4.60;;;25.70;69.00;;;;;;5010084;28;20026;-82
2021/07/31 06:32:48;;;;;;;12.00;4.55;;;25.80;68.70;;;;;;5010949;28;20048;-82
2021/07/31 06:35:14;;;;;;;12.63;4.22;;;25.90;68.20;;;;;;5010295;28;20593;-81
2021/07/31 06:37:40;;;;;;;7.65;4.10;;;26.10;67.80;;;;;;5010703;28;20116;-80
2021/07/31 06:40:06;;;;;;;15.10;3.95;;;26.10;67.30;;;;;;5010689;28;20516;-80
2021/07/31 06:42:32;;;;;;;17.40;5.07;;;26.20;66.30;;;;;;5028613;28;20028;-80
2021/07/31 06:44:57;;;;;;;11.68;4.40;;;26.30;65.30;;;;;;5010354;28;20037;-81
2021/07/31 06:47:23;;;;;;;11.80;5.35;;;26.40;65.20;;;;;;5010471;28;20029;-81
2021/07/31 06:49:49;;;;;;;11.77;4.28;;;26.30;65.00;;;;;;5010694;28;20040;-80
2021/07/31 06:52:15;;;;;;;15.80;4.50;;;26.50;65.50;;;;;;5028176;28;20434;-80
2021/07/31 06:54:41;;;;;;;13.20;4.97;;;26.90;64.60;;;;;;5010289;28;20025;-81
2021/07/31 06:57:10;;;;;;;11.02;5.07;;;27.30;63.80;;;;;;5010262;28;20029;-81
2021/07/31 06:59:39;;;;;;;9.25;4.35;;;28.10;62.40;;;;;;5027338;28;20034;-81
2021/07/31 07:02:05;;;;;;;14.48;4.18;;;28.70;60.30;;;;;;5009725;28;20120;-81
2021/07/31 07:04:31;;;;;;;12.05;5.07;;;29.00;60.00;;;;;;5027656;28;20136;-82
2021/07/31 07:06:59;;;;;;;14.20;4.30;;;29.00;59.40;;;;;;5009926;28;20032;-82
2021/07/31 07:09:25;;;;;;;8.27;4.75;;;28.50;58.70;;;;;;5027239;28;20033;-82
2021/07/31 07:11:51;;;;;;;9.38;4.93;;;28.20;58.70;;;;;;5009919;28;20038;-83
2021/07/31 07:14:16;;;;;;;8.73;4.45;;;27.90;60.50;;;;;;5027636;28;20028;-83
2021/07/31 07:16:42;;;;;;;12.52;4.15;;;27.70;61.50;;;;;;5009731;28;20520;-83
2021/07/31 07:19:08;;;;;;;18.88;4.30;;;27.50;62.70;;;;;;5027644;28;20885;-83
2021/07/31 07:21:33;;;;;;;13.50;4.30;;;27.50;60.20;;;;;;5027812;28;20078;-83
2021/07/31 07:23:59;;;;;;;11.85;4.63;;;27.40;60.00;;;;;;5010145;28;20128;-81
2021/07/31 07:26:25;;;;;;;13.77;4.47;;;27.20;59.90;;;;;;5010024;28;20476;-81
2021/07/31 07:28:50;;;;;;;7.82;3.80;;;27.00;60.00;;;;;;5009709;28;20056;-82
2021/07/31 07:31:16;;;;;;;9.15;4.50;;;27.40;59.10;;;;;;5027110;28;20048;-83
2021/07/31 07:33:42;;;;;;;18.15;3.92;;;27.90;57.40;;;;;;5009313;28;20026;-83
2021/07/31 07:36:16;;;;;;;18.73;4.68;;;28.10;56.30;;;;;;5009666;28;20375;-83
2021/07/31 07:38:42;;;;;;;12.95;4.93;;;28.10;56.20;;;;;;5027103;28;20049;-83
2021/07/31 07:41:10;;;;;;;11.40;4.75;;;28.00;56.30;;;;;;5027272;28;20402;-82
2021/07/31 07:43:36;;;;;;;13.70;4.55;;;28.20;56.20;;;;;;5008412;28;20245;-82
2021/07/31 07:46:03;;;;;;;11.38;4.38;;;28.50;55.70;;;;;;5027367;28;20021;-82
2021/07/31 07:48:28;;;;;;;14.35;4.60;;;28.80;55.40;;;;;;5009272;28;20075;-82
2021/07/31 07:50:54;;;;;;;8.80;4.70;;;29.60;54.40;;;;;;5026786;28;20092;-81
2021/07/31 07:53:20;;;;;;;12.55;5.13;;;30.60;55.60;;;;;;5026838;28;20509;-81
2021/07/31 07:55:46;;;;;;;14.98;4.07;;;31.30;53.90;;;;;;5008965;28;20022;-81
2021/07/31 07:58:11;;;;;;;8.07;4.15;;;31.60;50.50;;;;;;5008704;28;20521;-81
2021/07/31 08:00:37;;;;;;;10.50;4.47;;;31.40;50.80;;;;;;5008952;28;20383;-81
2021/07/31 08:03:03;;;;;;;8.25;4.22;;;30.80;52.70;;;;;;5008389;28;20037;-81
2021/07/31 08:05:29;;;;;;;16.33;5.57;;;30.70;52.40;;;;;;5009327;28;20032;-81
2021/07/31 08:07:55;;;;;;;17.75;4.30;;;30.70;51.50;;;;;;5026393;28;20033;-81
2021/07/31 08:10:20;;;;;;;15.38;4.97;;;30.30;51.80;;;;;;5026795;28;20021;-81
2021/07/31 08:12:46;;;;;;;8.77;5.07;;;30.20;52.40;;;;;;5026080;28;20068;-83
2021/07/31 08:15:12;;;;;;;12.23;5.80;;;30.40;51.70;;;;;;5026392;28;20122;-81
2021/07/31 08:17:37;;;;;;;16.90;5.68;;;30.30;50.20;;;;;;5026239;28;20052;-82
2021/07/31 08:20:05;;;;;;;15.55;5.93;;;30.50;50.00;;;;;;5008977;28;20394;-82
2021/07/31 08:22:31;;;;;;;8.38;5.20;;;30.80;49.70;;;;;;5026716;28;20036;-81
2021/07/31 08:24:56;;;;;;;6.55;4.22;;;31.00;49.70;;;;;;5025980;28;20029;-82
2021/07/31 08:27:22;;;;;;;10.55;7.05;;;31.10;50.70;;;;;;5008711;28;20030;-81
2021/07/31 08:29:48;;;;;;;11.20;5.20;;;31.00;54.90;;;;;;5026087;28;20021;-81
2021/07/31 08:32:14;;;;;;;9.18;5.20;;;30.60;57.70;;;;;;5025970;28;20512;-80
2021/07/31 08:34:39;;;;;;;7.20;5.00;;;30.20;59.00;;;;;;5026526;28;20025;-81
2021/07/31 08:37:05;;;;;;;17.08;5.43;;;29.70;60.50;;;;;;5025818;28;20145;-82
2021/07/31 08:39:31;;;;;;;8.68;4.07;;;29.20;62.10;;;;;;5026466;28;20117;-82
2021/07/31 08:41:56;;;;;;;7.60;4.35;;;28.70;63.30;;;;;;5026124;28;20034;-82
2021/07/31 08:44:22;;;;;;;15.15;5.22;;;28.10;68.60;;;;;;5008411;28;20061;-80
2021/07/31 08:46:50;;;;;;;23.38;7.30;;;27.50;73.00;;;;;;5008251;28;20531;-81
2021/07/31 08:49:19;;;;;;;20.20;7.47;;;26.80;78.70;;;;;;5026522;28;20029;-82
2021/07/31 08:51:46;;;;;;;18.77;6.68;;;26.20;82.00;;;;;;5008749;28;20045;-81
2021/07/31 08:54:12;;;;;;;17.52;6.47;;;25.50;85.60;;;;;;5027025;28;20216;-82
2021/07/31 08:56:42;;;;;;;13.27;5.78;;;24.90;87.80;;;;;;5030567;28;20570;-82
2021/07/31 08:59:08;;;;;;;14.02;5.43;;;24.40;90.10;;;;;;5030003;28;20490;-83
2021/07/31 09:01:33;;;;;;;20.77;5.32;;;24.00;91.10;;;;;;5030132;28;20119;-84
2021/07/31 09:04:10;;;;;;;10.30;5.15;;;23.60;91.90;;;;;;5012051;28;20072;-84
2021/07/31 09:06:36;;;;;;;8.88;4.50;;;23.20;92.70;;;;;;5012516;28;20029;-85
2021/07/31 09:09:01;;;;;;;10.30;5.30;;;22.90;93.90;;;;;;5029965;28;20034;-84
2021/07/31 09:11:28;;;;;;;8.60;6.03;;;22.70;95.20;;;;;;5011914;28;20038;-84
2021/07/31 09:14:11;;;;;;;13.95;6.03;;;22.60;96.00;;;;;;5012137;28;20410;-84
2021/07/31 09:16:38;;;;;;;13.38;7.35;;;22.70;96.30;;;;;;5029978;28;20113;-83
2021/07/31 09:19:09;;;;;;;11.23;6.32;;;22.70;96.90;;;;;;5012085;28;20029;-85
2021/07/31 09:21:36;;;;;;;18.08;8.02;;;22.80;97.50;;;;;;5012127;28;20116;-86
2021/07/31 09:24:02;;;;;;;11.90;6.45;;;22.90;97.80;;;;;;5029724;28;20274;-84
2021/07/31 09:26:37;;;;;;;79.10;39.17;;;23.10;98.20;;;;;;5029841;28;20401;-83
2021/07/31 09:29:05;;;;;;;106.82;44.58;;;23.30;98.00;;;;;;5008799;28;20022;-85
2021/07/31 09:31:31;;;;;;;96.85;51.45;;;23.40;97.50;;;;;;5011931;28;20038;-82
2021/07/31 09:34:00;;;;;;;48.20;29.23;;;23.50;97.40;;;;;;5011478;28;20151;-83
2021/07/31 09:36:42;;;;;;;11.38;7.32;;;23.70;96.90;;;;;;5029407;28;20409;-84
2021/07/31 09:39:11;;;;;;;11.95;5.45;;;24.00;96.50;;;;;;5011651;28;20422;-85
2021/07/31 09:41:39;;;;;;;9.75;5.32;;;24.20;96.10;;;;;;5012002;28;20037;-83
2021/07/31 09:44:05;;;;;;;15.55;5.30;;;24.40;95.20;;;;;;5011401;28;20116;-82
2021/07/31 09:46:47;;;;;;;7.13;4.97;;;24.80;93.60;;;;;;5011675;28;20125;-81
2021/07/31 09:49:16;;;;;;;8.18;5.80;;;25.20;93.00;;;;;;5029361;28;20757;-81
2021/07/31 09:51:44;;;;;;;7.22;5.75;;;25.60;92.90;;;;;;5011283;28;20117;-82
2021/07/31 09:54:12;;;;;;;13.60;7.30;;;26.00;91.80;;;;;;5029585;28;20109;-81
2021/07/31 09:56:40;;;;;;;9.93;6.07;;;26.20;91.30;;;;;;5011648;28;20034;-82
2021/07/31 09:59:08;;;;;;;10.15;5.38;;;26.40;90.30;;;;;;5011169;28;20529;-81
2021/07/31 10:01:42;;;;;;;9.80;5.80;;;26.70;90.40;;;;;;5011410;28;20033;-81
2021/07/31 10:04:08;;;;;;;9.77;5.63;;;27.40;90.20;;;;;;5011398;28;20026;-82
2021/07/31 10:06:34;;;;;;;8.73;5.47;;;28.40;87.40;;;;;;5028663;28;20028;-82
2021/07/31 10:09:03;;;;;;;11.02;5.38;;;29.30;85.30;;;;;;5010931;28;20026;-83
2021/07/31 10:11:31;;;;;;;5.70;5.13;;;30.10;81.10;;;;;;5011230;28;20034;-82
2021/07/31 10:13:58;;;;;;;8.00;4.55;;;30.40;77.50;;;;;;5010963;28;20506;-82
2021/07/31 10:16:24;;;;;;;6.40;4.30;;;30.30;72.10;;;;;;5010447;28;20021;-82
2021/07/31 10:19:04;;;;;;;8.00;4.57;;;30.00;70.60;;;;;;5010897;28;20029;-81
2021/07/31 10:21:42;;;;;;;5.45;3.63;;;29.80;70.20;;;;;;5028785;28;20029;-80
2021/07/31 10:24:08;;;;;;;7.60;4.20;;;29.50;69.80;;;;;;5010930;28;20528;-80
2021/07/31 10:26:38;;;;;;;6.85;3.53;;;29.40;69.90;;;;;;5029036;28;20095;-82
2021/07/31 10:29:25;;;;;;;6.38;3.75;;;29.70;69.20;;;;;;5010217;28;20037;-81
2021/07/31 10:31:51;;;;;;;7.78;3.47;;;29.90;67.30;;;;;;5028119;28;20467;-81
2021/07/31 10:34:45;;;;;;;4.22;3.22;;;30.00;67.60;;;;;;5010860;28;20083;-81
2021/07/31 10:37:29;;;;;;;9.48;5.88;;;30.20;68.80;;;;;;5027949;28;20053;-82
2021/07/31 10:39:56;;;;;;;4.45;3.47;;;30.30;69.70;;;;;;5028256;28;20426;-82
2021/07/31 10:42:23;;;;;;;4.93;3.80;;;30.20;66.70;;;;;;5010294;28;20394;-81
2021/07/31 10:45:16;;;;;;;5.90;3.65;;;30.20;63.50;;;;;;5010434;28;20422;-81
2021/07/31 10:47:46;;;;;;;6.72;3.65;;;30.00;64.00;;;;;;5010113;28;20025;-82
2021/07/31 10:50:27;;;;;;;5.70;3.28;;;29.90;66.10;;;;;;5010964;28;20037;-81
2021/07/31 10:53:08;;;;;;;4.63;3.00;;;29.90;64.40;;;;;;5010531;28;20072;-80
2021/07/31 10:55:37;;;;;;;4.85;3.30;;;29.80;68.90;;;;;;5010098;28;20025;-81
2021/07/31 10:58:05;;;;;;;4.60;2.83;;;29.90;66.60;;;;;;5009644;28;20033;-80
2021/07/31 11:00:34;;;;;;;5.35;3.75;;;29.90;64.80;;;;;;5010407;28;20053;-83
2021/07/31 11:03:04;;;;;;;5.82;3.17;;;29.70;62.20;;;;;;5009831;28;20116;-82
2021/07/31 11:05:51;;;;;;;4.40;3.10;;;29.60;63.90;;;;;;5010457;28;20029;-82
2021/07/31 11:08:18;;;;;;;6.93;2.92;;;29.60;64.30;;;;;;5028059;28;20120;-82
2021/07/31 11:10:47;;;;;;;5.88;3.05;;;29.50;65.10;;;;;;5010100;28;20032;-82
2021/07/31 11:13:16;;;;;;;6.70;2.80;;;29.60;65.30;;;;;;5009591;28;20068;-81
2021/07/31 11:16:06;;;;;;;6.95;3.00;;;29.60;66.80;;;;;;5027511;28;20033;-82
2021/07/31 11:18:35;;;;;;;3.47;2.50;;;29.70;65.90;;;;;;5006352;28;20497;-82
2021/07/31 11:21:08;;;;;;;5.45;2.75;;;29.80;65.10;;;;;;5009579;28;20037;-81
2021/07/31 11:23:39;;;;;;;3.42;2.50;;;29.90;63.60;;;;;;5009875;28;20130;-83
2021/07/31 11:26:05;;;;;;;5.70;3.00;;;29.90;63.60;;;;;;5009362;28;20083;-82
2021/07/31 11:28:31;;;;;;;3.25;2.38;;;29.80;64.40;;;;;;5026916;28;20033;-83
2021/07/31 11:30:56;;;;;;;6.28;2.80;;;29.70;64.20;;;;;;5009475;28;20576;-83
2021/07/31 11:33:24;;;;;;;4.22;2.72;;;29.60;65.00;;;;;;5009845;28;20068;-82
2021/07/31 11:35:53;;;;;;;7.72;2.72;;;29.40;65.10;;;;;;5027014;28;20033;-83
2021/07/31 11:38:30;;;;;;;7.80;3.75;;;29.30;66.60;;;;;;5027043;28;20061;-82
2021/07/31 11:41:10;;;;;;;4.82;3.25;;;29.40;67.20;;;;;;5009185;28;20040;-82
2021/07/31 11:43:47;;;;;;;7.60;6.75;;;29.40;66.70;;;;;;5009420;28;20060;-83
2021/07/31 11:46:26;;;;;;;4.18;2.88;;;29.50;66.90;;;;;;5009365;28;20029;-81
2021/07/31 11:48:51;;;;;;;7.15;4.35;;;29.70;66.10;;;;;;5027212;28;20025;-82
2021/07/31 11:51:17;;;;;;;6.80;3.45;;;29.90;66.40;;;;;;5009260;28;20175;-80
2021/07/31 11:53:43;;;;;;;4.25;2.67;;;30.00;65.50;;;;;;5026819;28;20100;-81
2021/07/31 11:56:19;;;;;;;3.38;2.42;;;30.10;65.70;;;;;;5009341;28;20521;-81
2021/07/31 11:58:46;;;;;;;7.10;3.22;;;30.10;65.40;;;;;;5009032;28;20091;-81
2021/07/31 12:01:13;;;;;;;5.03;3.00;;;30.00;64.70;;;;;;5026288;28;20399;-81
2021/07/31 12:03:46;;;;;;;4.40;2.63;;;29.90;64.90;;;;;;5027177;28;20095;-82
2021/07/31 12:06:34;;;;;;;6.07;2.80;;;29.90;64.30;;;;;;5008688;28;20114;-81
2021/07/31 12:09:05;;;;;;;5.47;2.75;;;29.80;65.50;;;;;;5008923;28;20029;-82
2021/07/31 12:11:41;;;;;;;5.78;2.90;;;29.90;65.60;;;;;;5008851;28;20219;-81
2021/07/31 12:14:26;;;;;;;4.60;2.72;;;30.00;65.20;;;;;;5026325;28;20068;-82
2021/07/31 12:16:51;;;;;;;4.57;2.78;;;30.20;64.70;;;;;;5026900;28;20028;-81
2021/07/31 12:19:17;;;;;;;3.95;2.35;;;30.20;63.30;;;;;;5008915;28;20398;-82
2021/07/31 12:21:43;;;;;;;5.82;2.88;;;30.20;63.00;;;;;;5009192;28;20080;-81
2021/07/31 12:24:18;;;;;;;4.93;2.53;;;30.00;62.40;;;;;;5026848;28;20025;-83
2021/07/31 12:26:53;;;;;;;3.78;2.58;;;30.00;62.50;;;;;;5009094;28;20018;-81
2021/07/31 12:29:31;;;;;;;5.10;2.43;;;29.90;62.60;;;;;;5026035;28;20048;-81
2021/07/31 12:32:20;;;;;;;5.15;2.70;;;29.90;62.10;;;;;;5008707;28;20493;-81
2021/07/31 12:34:46;;;;;;;6.20;2.83;;;29.90;64.00;;;;;;5018608;28;20083;-81
2021/07/31 12:37:12;;;;;;;4.05;2.72;;;29.90;63.50;;;;;;4988794;28;20062;-82
2021/07/31 12:39:37;;;;;;;3.33;2.58;;;30.00;61.70;;;;;;5007060;28;20509;-82
2021/07/31 12:42:04;;;;;;;4.38;2.15;;;30.00;60.20;;;;;;4988885;28;20029;-81
2021/07/31 12:44:30;;;;;;;4.03;2.60;;;30.10;60.30;;;;;;5004626;28;20289;-82
2021/07/31 12:46:57;;;;;;;3.30;2.40;;;30.20;59.70;;;;;;5002948;28;20026;-83